sensor_id;sensor_type;location;lat;lon;timestamp;pressure;altitude;pressure_sealevel;temperature;humidity
51299;BME280;37382;45.192;9.790;2023-09-18T04:25:27;101245.06;;;21.21;100.00
51299;BME280;37382;45.192;9.790;2023-09-18T04:27:54;101241.78;;;21.02;100.00
51299;BME280;37382;45.192;9.790;2023-09-18T04:30:23;101234.75;;;20.94;100.00
51299;BME280;37382;45.192;9.790;2023-09-18T04:32:51;101233.91;;;20.93;100.00
51299;BME280;37382;45.192;9.790;2023-09-18T04:35:20;101222.94;;;20.99;100.00
51299;BME280;37382;45.192;9.790;2023-09-18T04:37:47;101228.34;;;21.10;100.00
51299;BME280;37382;45.192;9.790;2023-09-18T04:40:15;101226.22;;;21.40;100.00
51299;BME280;37382;45.192;9.790;2023-09-18T04:42:43;101221.38;;;21.30;100.00
51299;BME280;37382;45.192;9.790;2023-09-18T04:45:11;101217.28;;;21.10;100.00
51299;BME280;37382;45.192;9.790;2023-09-18T04:47:39;101207.56;;;21.08;100.00
51299;BME280;37382;45.192;9.790;2023-09-18T04:50:07;101219.72;;;21.07;100.00
51299;BME280;37382;45.192;9.790;2023-09-18T04:52:41;101223.69;;;21.16;100.00
51299;BME280;37382;45.192;9.790;2023-09-18T04:55:10;101222.56;;;21.12;100.00
51299;BME280;37382;45.192;9.790;2023-09-18T04:57:38;101235.47;;;21.06;100.00
51299;BME280;37382;45.192;9.790;2023-09-18T05:00:06;101234.88;;;21.04;100.00
51299;BME280;37382;45.192;9.790;2023-09-18T05:02:44;101229.94;;;21.06;100.00
51299;BME280;37382;45.192;9.790;2023-09-18T05:05:12;101240.81;;;21.13;100.00
51299;BME280;37382;45.192;9.790;2023-09-18T05:07:42;101235.22;;;21.08;100.00
51299;BME280;37382;45.192;9.790;2023-09-18T05:10:10;101229.22;;;21.16;100.00
51299;BME280;37382;45.192;9.790;2023-09-18T05:12:39;101228.19;;;21.22;100.00
51299;BME280;37382;45.192;9.790;2023-09-18T05:15:08;101234.66;;;21.28;100.00
51299;BME280;37382;45.192;9.790;2023-09-18T05:17:41;101237.19;;;21.35;100.00
51299;BME280;37382;45.192;9.790;2023-09-18T05:20:11;101231.06;;;21.49;100.00
51299;BME280;37382;45.192;9.790;2023-09-18T05:22:42;101233.81;;;21.49;100.00
51299;BME280;37382;45.192;9.790;2023-09-18T05:25:10;101227.25;;;21.33;100.00
51299;BME280;37382;45.192;9.790;2023-09-18T05:27:38;101239.19;;;21.39;100.00
51299;BME280;37382;45.192;9.790;2023-09-18T05:30:15;101247.97;;;21.75;100.00
51299;BME280;37382;45.192;9.790;2023-09-18T05:32:43;101257.94;;;21.76;100.00
51299;BME280;37382;45.192;9.790;2023-09-18T05:35:13;101251.09;;;21.84;100.00
51299;BME280;37382;45.192;9.790;2023-09-18T05:37:41;101259.84;;;21.76;100.00
51299;BME280;37382;45.192;9.790;2023-09-18T05:40:11;101265.91;;;21.73;100.00
51299;BME280;37382;45.192;9.790;2023-09-18T05:42:42;101266.72;;;21.95;100.00
51299;BME280;37382;45.192;9.790;2023-09-18T05:45:13;101245.75;;;22.04;100.00
51299;BME280;37382;45.192;9.790;2023-09-18T05:47:44;101250.25;;;22.11;100.00
51299;BME280;37382;45.192;9.790;2023-09-18T05:50:12;101239.94;;;22.06;100.00
51299;BME280;37382;45.192;9.790;2023-09-18T05:52:45;101239.13;;;22.06;100.00
51299;BME280;37382;45.192;9.790;2023-09-18T05:55:14;101239.44;;;21.82;100.00
51299;BME280;37382;45.192;9.790;2023-09-18T05:57:42;101230.81;;;22.06;100.00
51299;BME280;37382;45.192;9.790;2023-09-18T06:00:11;101193.09;;;22.04;100.00
51299;BME280;37382;45.192;9.790;2023-09-18T06:02:40;101168.16;;;21.99;100.00
51299;BME280;37382;45.192;9.790;2023-09-18T06:05:09;101154.19;;;21.89;100.00
51299;BME280;37382;45.192;9.790;2023-09-18T06:07:40;101137.56;;;21.84;100.00
51299;BME280;37382;45.192;9.790;2023-09-18T06:10:08;101116.59;;;21.61;100.00
51299;BME280;37382;45.192;9.790;2023-09-18T06:12:39;101110.41;;;21.86;100.00
51299;BME280;37382;45.192;9.790;2023-09-18T06:15:08;101097.19;;;21.93;100.00
51299;BME280;37382;45.192;9.790;2023-09-18T06:17:43;101096.56;;;21.86;100.00
51299;BME280;37382;45.192;9.790;2023-09-18T06:20:11;101113.28;;;21.96;100.00
51299;BME280;37382;45.192;9.790;2023-09-18T06:22:44;101130.56;;;22.14;100.00
51299;BME280;37382;45.192;9.790;2023-09-18T06:25:11;101150.09;;;22.29;100.00
51299;BME280;37382;45.192;9.790;2023-09-18T06:27:41;101157.91;;;22.32;100.00
51299;BME280;37382;45.192;9.790;2023-09-18T06:30:09;101167.34;;;22.36;100.00
51299;BME280;37382;45.192;9.790;2023-09-18T06:32:37;101173.41;;;22.33;100.00
51299;BME280;37382;45.192;9.790;2023-09-18T06:35:05;101167.50;;;22.57;100.00
51299;BME280;37382;45.192;9.790;2023-09-18T06:37:33;101157.53;;;22.61;100.00
51299;BME280;37382;45.192;9.790;2023-09-18T06:40:01;101141.78;;;22.72;100.00
51299;BME280;37382;45.192;9.790;2023-09-18T06:42:46;101140.53;;;23.05;100.00
51299;BME280;37382;45.192;9.790;2023-09-18T06:45:14;101138.31;;;23.02;100.00
51299;BME280;37382;45.192;9.790;2023-09-18T06:47:41;101133.38;;;23.15;100.00
51299;BME280;37382;45.192;9.790;2023-09-18T06:50:09;101140.31;;;23.17;100.00
51299;BME280;37382;45.192;9.790;2023-09-18T06:52:39;101128.41;;;23.32;100.00
51299;BME280;37382;45.192;9.790;2023-09-18T06:55:07;101125.63;;;23.22;100.00
51299;BME280;37382;45.192;9.790;2023-09-18T06:57:35;101132.84;;;23.18;100.00
51299;BME280;37382;45.192;9.790;2023-09-18T07:00:03;101125.88;;;23.15;100.00
51299;BME280;37382;45.192;9.790;2023-09-18T07:02:32;101134.91;;;22.90;100.00
51299;BME280;37382;45.192;9.790;2023-09-18T07:04:59;101132.53;;;23.09;100.00
51299;BME280;37382;45.192;9.790;2023-09-18T07:07:27;101118.97;;;23.28;100.00
51299;BME280;37382;45.192;9.790;2023-09-18T07:09:54;101119.25;;;23.16;100.00
51299;BME280;37382;45.192;9.790;2023-09-18T07:12:25;101107.88;;;23.28;100.00
51299;BME280;37382;45.192;9.790;2023-09-18T07:14:53;101100.94;;;23.25;100.00
51299;BME280;37382;45.192;9.790;2023-09-18T07:17:21;101100.66;;;23.27;100.00
51299;BME280;37382;45.192;9.790;2023-09-18T07:19:49;101092.84;;;23.14;100.00
51299;BME280;37382;45.192;9.790;2023-09-18T07:22:16;101088.72;;;23.26;100.00
51299;BME280;37382;45.192;9.790;2023-09-18T07:24:44;101081.47;;;23.15;100.00
51299;BME280;37382;45.192;9.790;2023-09-18T07:27:13;101091.22;;;23.38;100.00
51299;BME280;37382;45.192;9.790;2023-09-18T07:29:40;101090.09;;;23.24;100.00
51299;BME280;37382;45.192;9.790;2023-09-18T07:32:09;101098.19;;;23.36;100.00
51299;BME280;37382;45.192;9.790;2023-09-18T07:34:36;101104.59;;;23.67;100.00
51299;BME280;37382;45.192;9.790;2023-09-18T07:37:05;101095.44;;;23.72;100.00
51299;BME280;37382;45.192;9.790;2023-09-18T07:39:33;101090.72;;;23.93;100.00
51299;BME280;37382;45.192;9.790;2023-09-18T07:42:00;101102.94;;;24.12;100.00
51299;BME280;37382;45.192;9.790;2023-09-18T07:44:28;101109.59;;;24.11;100.00
51299;BME280;37382;45.192;9.790;2023-09-18T07:46:56;101104.31;;;24.00;100.00
51299;BME280;37382;45.192;9.790;2023-09-18T07:49:24;101108.22;;;24.14;100.00
51299;BME280;37382;45.192;9.790;2023-09-18T07:51:51;101107.38;;;24.29;100.00
51299;BME280;37382;45.192;9.790;2023-09-18T07:54:18;101106.81;;;24.32;100.00
51299;BME280;37382;45.192;9.790;2023-09-18T07:56:46;101101.78;;;24.24;100.00
51299;BME280;37382;45.192;9.790;2023-09-18T07:59:14;101096.25;;;24.08;100.00
51299;BME280;37382;45.192;9.790;2023-09-18T08:01:45;101087.66;;;23.94;100.00
51299;BME280;37382;45.192;9.790;2023-09-18T08:04:12;101089.88;;;23.82;100.00
51299;BME280;37382;45.192;9.790;2023-09-18T08:06:40;101099.53;;;24.41;100.00
51299;BME280;37382;45.192;9.790;2023-09-18T08:09:08;101098.13;;;24.49;100.00
51299;BME280;37382;45.192;9.790;2023-09-18T08:11:39;101091.47;;;24.50;100.00
51299;BME280;37382;45.192;9.790;2023-09-18T08:14:13;101095.31;;;24.64;100.00
51299;BME280;37382;45.192;9.790;2023-09-18T08:16:41;101114.41;;;24.92;100.00
51299;BME280;37382;45.192;9.790;2023-09-18T08:19:08;101112.22;;;24.78;100.00
51299;BME280;37382;45.192;9.790;2023-09-18T08:21:36;101101.56;;;25.01;100.00
51299;BME280;37382;45.192;9.790;2023-09-18T08:24:04;101100.34;;;25.17;100.00
51299;BME280;37382;45.192;9.790;2023-09-18T08:26:32;101098.94;;;25.20;100.00
51299;BME280;37382;45.192;9.790;2023-09-18T08:29:00;101088.91;;;25.69;100.00
51299;BME280;37382;45.192;9.790;2023-09-18T08:31:28;101079.22;;;25.61;100.00
51299;BME280;37382;45.192;9.790;2023-09-18T08:33:58;101071.38;;;25.63;100.00
51299;BME280;37382;45.192;9.790;2023-09-18T08:36:26;101076.03;;;25.33;100.00
51299;BME280;37382;45.192;9.790;2023-09-18T08:38:56;101065.31;;;25.11;100.00
51299;BME280;37382;45.192;9.790;2023-09-18T08:41:28;101060.63;;;25.01;100.00
51299;BME280;37382;45.192;9.790;2023-09-18T08:44:00;101053.72;;;24.94;100.00
51299;BME280;37382;45.192;9.790;2023-09-18T08:46:28;101066.00;;;24.88;100.00
51299;BME280;37382;45.192;9.790;2023-09-18T08:48:58;101069.44;;;24.69;100.00
51299;BME280;37382;45.192;9.790;2023-09-18T08:51:27;101073.94;;;24.39;100.00
51299;BME280;37382;45.192;9.790;2023-09-18T08:53:56;101073.38;;;24.42;100.00
51299;BME280;37382;45.192;9.790;2023-09-18T08:56:25;101075.38;;;24.37;100.00
51299;BME280;37382;45.192;9.790;2023-09-18T08:58:53;101085.13;;;24.19;100.00
51299;BME280;37382;45.192;9.790;2023-09-18T09:01:21;101094.34;;;24.09;100.00
51299;BME280;37382;45.192;9.790;2023-09-18T09:03:49;101102.94;;;24.07;100.00
51299;BME280;37382;45.192;9.790;2023-09-18T09:06:17;101100.47;;;23.95;100.00
51299;BME280;37382;45.192;9.790;2023-09-18T09:08:45;101096.31;;;23.88;100.00
51299;BME280;37382;45.192;9.790;2023-09-18T09:11:13;101072.09;;;23.93;100.00
51299;BME280;37382;45.192;9.790;2023-09-18T09:13:41;101049.88;;;23.88;100.00
51299;BME280;37382;45.192;9.790;2023-09-18T09:16:13;101038.78;;;23.98;100.00
51299;BME280;37382;45.192;9.790;2023-09-18T09:18:49;101044.63;;;23.87;100.00
51299;BME280;37382;45.192;9.790;2023-09-18T09:21:19;101039.59;;;23.89;100.00
51299;BME280;37382;45.192;9.790;2023-09-18T09:23:52;101037.09;;;23.82;100.00
51299;BME280;37382;45.192;9.790;2023-09-18T09:26:22;101044.88;;;23.90;100.00
51299;BME280;37382;45.192;9.790;2023-09-18T09:28:50;101030.69;;;24.02;100.00
51299;BME280;37382;45.192;9.790;2023-09-18T09:31:24;101043.69;;;24.27;100.00
51299;BME280;37382;45.192;9.790;2023-09-18T09:33:52;101035.56;;;24.51;100.00
51299;BME280;37382;45.192;9.790;2023-09-18T09:36:21;101039.16;;;24.62;100.00
51299;BME280;37382;45.192;9.790;2023-09-18T09:38:55;101030.47;;;24.69;100.00
51299;BME280;37382;45.192;9.790;2023-09-18T09:41:23;101032.97;;;25.15;100.00
51299;BME280;37382;45.192;9.790;2023-09-18T09:43:55;101039.13;;;25.12;100.00
51299;BME280;37382;45.192;9.790;2023-09-18T09:46:24;101028.00;;;25.52;100.00
51299;BME280;37382;45.192;9.790;2023-09-18T09:49:02;101027.19;;;25.51;100.00
51299;BME280;37382;45.192;9.790;2023-09-18T09:51:31;101023.34;;;25.77;100.00
51299;BME280;37382;45.192;9.790;2023-09-18T09:53:59;101025.13;;;25.91;100.00
51299;BME280;37382;45.192;9.790;2023-09-18T09:56:48;101026.78;;;25.92;100.00
51299;BME280;37382;45.192;9.790;2023-09-18T09:59:18;101023.19;;;25.92;100.00
51299;BME280;37382;45.192;9.790;2023-09-18T10:01:47;101021.25;;;26.17;100.00
51299;BME280;37382;45.192;9.790;2023-09-18T10:04:18;101018.56;;;26.55;100.00
51299;BME280;37382;45.192;9.790;2023-09-18T10:06:52;101014.66;;;26.80;100.00
51299;BME280;37382;45.192;9.790;2023-09-18T10:09:23;101024.53;;;26.72;100.00
51299;BME280;37382;45.192;9.790;2023-09-18T10:11:54;101021.44;;;26.50;100.00
51299;BME280;37382;45.192;9.790;2023-09-18T10:14:30;101022.44;;;26.59;100.00
51299;BME280;37382;45.192;9.790;2023-09-18T10:17:19;101032.16;;;27.05;100.00
51299;BME280;37382;45.192;9.790;2023-09-18T10:20:08;101025.63;;;27.28;100.00
51299;BME280;37382;45.192;9.790;2023-09-18T10:22:50;101033.59;;;27.21;100.00
51299;BME280;37382;45.192;9.790;2023-09-18T10:25:23;101042.63;;;27.51;100.00
51299;BME280;37382;45.192;9.790;2023-09-18T10:27:52;101031.25;;;27.94;100.00
51299;BME280;37382;45.192;9.790;2023-09-18T10:30:39;101033.69;;;27.82;100.00
51299;BME280;37382;45.192;9.790;2023-09-18T10:33:08;101036.75;;;27.66;100.00
51299;BME280;37382;45.192;9.790;2023-09-18T10:35:37;101036.28;;;27.78;100.00
51299;BME280;37382;45.192;9.790;2023-09-18T10:38:06;101027.13;;;28.06;100.00
51299;BME280;37382;45.192;9.790;2023-09-18T10:40:36;101019.56;;;28.06;100.00
51299;BME280;37382;45.192;9.790;2023-09-18T10:43:04;101019.47;;;27.64;100.00
51299;BME280;37382;45.192;9.790;2023-09-18T10:45:36;101015.44;;;27.71;100.00
51299;BME280;37382;45.192;9.790;2023-09-18T10:48:06;101010.59;;;27.62;100.00
51299;BME280;37382;45.192;9.790;2023-09-18T10:50:36;101003.56;;;27.79;100.00
51299;BME280;37382;45.192;9.790;2023-09-18T10:53:04;100995.47;;;27.77;100.00
51299;BME280;37382;45.192;9.790;2023-09-18T10:55:32;100988.84;;;27.59;100.00
51299;BME280;37382;45.192;9.790;2023-09-18T10:58:00;100985.56;;;27.38;100.00
51299;BME280;37382;45.192;9.790;2023-09-18T11:00:31;100991.25;;;27.80;100.00
51299;BME280;37382;45.192;9.790;2023-09-18T11:03:16;101001.78;;;28.16;100.00
51299;BME280;37382;45.192;9.790;2023-09-18T11:05:46;100997.25;;;27.87;100.00
51299;BME280;37382;45.192;9.790;2023-09-18T11:08:36;100998.03;;;27.60;100.00
51299;BME280;37382;45.192;9.790;2023-09-18T11:11:12;100998.28;;;27.77;100.00
51299;BME280;37382;45.192;9.790;2023-09-18T11:13:45;100985.06;;;28.11;100.00
51299;BME280;37382;45.192;9.790;2023-09-18T11:21:28;100961.50;;;29.04;100.00
51299;BME280;37382;45.192;9.790;2023-09-18T11:26:35;100965.88;;;28.96;100.00
51299;BME280;37382;45.192;9.790;2023-09-18T11:29:08;100970.56;;;29.23;100.00
51299;BME280;37382;45.192;9.790;2023-09-18T11:31:49;100973.72;;;29.53;100.00
51299;BME280;37382;45.192;9.790;2023-09-18T11:34:28;100962.25;;;29.63;100.00
51299;BME280;37382;45.192;9.790;2023-09-18T11:37:00;100973.44;;;29.95;100.00
51299;BME280;37382;45.192;9.790;2023-09-18T11:39:40;100982.59;;;29.78;100.00
51299;BME280;37382;45.192;9.790;2023-09-18T11:42:09;100985.81;;;29.62;100.00
51299;BME280;37382;45.192;9.790;2023-09-18T11:44:38;100989.09;;;29.33;100.00
51299;BME280;37382;45.192;9.790;2023-09-18T11:47:16;100985.81;;;29.17;100.00
51299;BME280;37382;45.192;9.790;2023-09-18T11:49:55;100978.75;;;29.20;100.00
51299;BME280;37382;45.192;9.790;2023-09-18T11:52:27;100971.13;;;29.34;100.00
51299;BME280;37382;45.192;9.790;2023-09-18T11:54:56;100962.94;;;28.79;100.00
51299;BME280;37382;45.192;9.790;2023-09-18T11:57:25;100964.88;;;28.92;100.00
51299;BME280;37382;45.192;9.790;2023-09-18T11:59:53;100963.38;;;28.72;100.00
51299;BME280;37382;45.192;9.790;2023-09-18T12:02:31;100960.00;;;28.19;100.00
51299;BME280;37382;45.192;9.790;2023-09-18T12:05:16;100964.22;;;27.89;100.00
51299;BME280;37382;45.192;9.790;2023-09-18T12:07:46;100960.59;;;27.61;100.00
51299;BME280;37382;45.192;9.790;2023-09-18T12:10:15;100959.63;;;27.51;100.00
51299;BME280;37382;45.192;9.790;2023-09-18T12:12:44;100951.97;;;27.57;100.00
51299;BME280;37382;45.192;9.790;2023-09-18T12:15:13;100948.38;;;27.71;100.00
51299;BME280;37382;45.192;9.790;2023-09-18T12:17:42;100950.72;;;27.63;100.00
51299;BME280;37382;45.192;9.790;2023-09-18T12:20:17;100946.88;;;27.45;100.00
51299;BME280;37382;45.192;9.790;2023-09-18T12:22:50;100940.19;;;27.27;100.00
51299;BME280;37382;45.192;9.790;2023-09-18T12:25:18;100931.69;;;27.19;100.00
51299;BME280;37382;45.192;9.790;2023-09-18T12:27:46;100932.44;;;27.05;100.00
51299;BME280;37382;45.192;9.790;2023-09-18T12:30:19;100928.91;;;26.99;100.00
51299;BME280;37382;45.192;9.790;2023-09-18T12:32:51;100915.31;;;27.12;100.00
51299;BME280;37382;45.192;9.790;2023-09-18T12:35:20;100929.91;;;26.90;100.00
51299;BME280;37382;45.192;9.790;2023-09-18T12:37:48;100923.75;;;26.74;100.00
51299;BME280;37382;45.192;9.790;2023-09-18T12:40:27;100922.81;;;26.59;100.00
51299;BME280;37382;45.192;9.790;2023-09-18T12:42:56;100920.84;;;26.60;100.00
51299;BME280;37382;45.192;9.790;2023-09-18T12:45:25;100918.59;;;26.62;100.00
51299;BME280;37382;45.192;9.790;2023-09-18T12:47:57;100914.53;;;26.54;100.00
51299;BME280;37382;45.192;9.790;2023-09-18T12:50:26;100919.25;;;26.54;100.00
51299;BME280;37382;45.192;9.790;2023-09-18T12:53:13;100911.88;;;26.44;100.00
51299;BME280;37382;45.192;9.790;2023-09-18T12:55:41;100901.53;;;26.44;100.00
51299;BME280;37382;45.192;9.790;2023-09-18T12:58:11;100897.25;;;26.33;100.00
51299;BME280;37382;45.192;9.790;2023-09-18T13:00:48;100896.25;;;26.43;100.00
51299;BME280;37382;45.192;9.790;2023-09-18T13:03:18;100896.03;;;26.39;100.00
51299;BME280;37382;45.192;9.790;2023-09-18T13:05:47;100894.47;;;26.33;100.00
51299;BME280;37382;45.192;9.790;2023-09-18T13:08:21;100892.63;;;26.23;100.00
51299;BME280;37382;45.192;9.790;2023-09-18T13:10:49;100901.50;;;26.06;100.00
51299;BME280;37382;45.192;9.790;2023-09-18T13:13:19;100887.19;;;25.89;100.00
51299;BME280;37382;45.192;9.790;2023-09-18T13:15:48;100880.72;;;25.93;100.00
51299;BME280;37382;45.192;9.790;2023-09-18T13:18:20;100878.28;;;25.87;100.00
51299;BME280;37382;45.192;9.790;2023-09-18T13:20:47;100867.59;;;25.75;100.00
51299;BME280;37382;45.192;9.790;2023-09-18T13:23:18;100875.88;;;25.80;100.00
51299;BME280;37382;45.192;9.790;2023-09-18T13:25:48;100867.19;;;25.63;100.00
51299;BME280;37382;45.192;9.790;2023-09-18T13:28:16;100857.50;;;25.55;100.00
51299;BME280;37382;45.192;9.790;2023-09-18T13:30:47;100861.28;;;25.40;100.00
51299;BME280;37382;45.192;9.790;2023-09-18T13:33:16;100856.78;;;25.44;100.00
51299;BME280;37382;45.192;9.790;2023-09-18T13:35:45;100846.59;;;25.34;100.00
51299;BME280;37382;45.192;9.790;2023-09-18T13:38:13;100852.34;;;25.43;100.00
51299;BME280;37382;45.192;9.790;2023-09-18T13:40:42;100845.53;;;25.54;100.00
51299;BME280;37382;45.192;9.790;2023-09-18T13:43:12;100839.97;;;25.54;100.00
51299;BME280;37382;45.192;9.790;2023-09-18T13:45:41;100833.44;;;25.64;100.00
51299;BME280;37382;45.192;9.790;2023-09-18T13:48:09;100846.72;;;25.72;100.00
51299;BME280;37382;45.192;9.790;2023-09-18T13:50:37;100843.63;;;25.98;100.00
51299;BME280;37382;45.192;9.790;2023-09-18T13:53:06;100843.56;;;26.22;100.00
51299;BME280;37382;45.192;9.790;2023-09-18T13:55:34;100841.59;;;26.61;100.00
51299;BME280;37382;45.192;9.790;2023-09-18T13:58:03;100851.19;;;27.21;100.00
51299;BME280;37382;45.192;9.790;2023-09-18T14:00:31;100843.13;;;27.19;100.00
51299;BME280;37382;45.192;9.790;2023-09-18T14:03:00;100835.06;;;27.31;100.00
51299;BME280;37382;45.192;9.790;2023-09-18T14:05:30;100827.56;;;27.46;100.00
51299;BME280;37382;45.192;9.790;2023-09-18T14:08:01;100821.41;;;27.16;100.00
51299;BME280;37382;45.192;9.790;2023-09-18T14:10:29;100826.13;;;27.48;100.00
51299;BME280;37382;45.192;9.790;2023-09-18T14:12:56;100812.88;;;29.00;100.00
51299;BME280;37382;45.192;9.790;2023-09-18T14:15:27;100811.94;;;28.82;100.00
51299;BME280;37382;45.192;9.790;2023-09-18T14:17:56;100801.47;;;28.29;100.00
51299;BME280;37382;45.192;9.790;2023-09-18T14:20:24;100807.66;;;27.89;100.00
51299;BME280;37382;45.192;9.790;2023-09-18T14:22:52;100794.13;;;27.68;100.00
51299;BME280;37382;45.192;9.790;2023-09-18T14:25:19;100795.28;;;27.54;100.00
51299;BME280;37382;45.192;9.790;2023-09-18T14:27:48;100762.13;;;32.40;100.00
51299;BME280;37382;45.192;9.790;2023-09-18T14:30:15;100789.72;;;31.83;100.00
51299;BME280;37382;45.192;9.790;2023-09-18T14:32:43;100782.69;;;34.34;100.00
51299;BME280;37382;45.192;9.790;2023-09-18T14:35:12;100789.78;;;32.80;100.00
51299;BME280;37382;45.192;9.790;2023-09-18T14:37:41;100790.50;;;34.82;100.00
51299;BME280;37382;45.192;9.790;2023-09-18T14:40:09;100781.13;;;38.92;85.24
51299;BME280;37382;45.192;9.790;2023-09-18T14:42:39;100768.84;;;39.26;77.25
51299;BME280;37382;45.192;9.790;2023-09-18T14:45:07;100762.94;;;40.23;68.91
51299;BME280;37382;45.192;9.790;2023-09-18T14:47:34;100735.84;;;41.12;60.78
51299;BME280;37382;45.192;9.790;2023-09-18T14:50:02;100724.34;;;40.50;59.92
51299;BME280;37382;45.192;9.790;2023-09-18T14:52:32;100721.50;;;41.55;56.36
51299;BME280;37382;45.192;9.790;2023-09-18T14:54:59;100704.44;;;41.04;57.67
51299;BME280;37382;45.192;9.790;2023-09-18T14:57:27;100697.03;;;42.46;54.15
51299;BME280;37382;45.192;9.790;2023-09-18T14:59:55;100658.88;;;43.12;50.76
51299;BME280;37382;45.192;9.790;2023-09-18T15:02:23;100663.47;;;42.54;49.77
51299;BME280;37382;45.192;9.790;2023-09-18T15:04:56;100652.16;;;42.36;49.80
51299;BME280;37382;45.192;9.790;2023-09-18T15:07:24;100650.84;;;43.00;48.68
51299;BME280;37382;45.192;9.790;2023-09-18T15:09:52;100638.44;;;43.14;46.40
51299;BME280;37382;45.192;9.790;2023-09-18T15:12:20;100635.69;;;42.58;44.68
51299;BME280;37382;45.192;9.790;2023-09-18T15:14:47;100626.00;;;39.72;45.63
51299;BME280;37382;45.192;9.790;2023-09-18T15:17:15;100616.91;;;39.48;45.04
51299;BME280;37382;45.192;9.790;2023-09-18T15:19:43;100617.94;;;41.29;42.05
51299;BME280;37382;45.192;9.790;2023-09-18T15:22:16;100623.44;;;37.36;45.62
51299;BME280;37382;45.192;9.790;2023-09-18T15:24:44;100614.59;;;37.14;47.04
51299;BME280;37382;45.192;9.790;2023-09-18T15:27:11;100610.53;;;39.00;42.48
51299;BME280;37382;45.192;9.790;2023-09-18T15:29:39;100614.00;;;36.52;46.11
51299;BME280;37382;45.192;9.790;2023-09-18T15:32:07;100617.13;;;37.80;45.44
51299;BME280;37382;45.192;9.790;2023-09-18T15:34:35;100618.66;;;37.74;45.63
51299;BME280;37382;45.192;9.790;2023-09-18T15:37:03;100630.78;;;36.87;47.08
51299;BME280;37382;45.192;9.790;2023-09-18T15:39:33;100623.06;;;38.43;44.15
51299;BME280;37382;45.192;9.790;2023-09-18T15:42:02;100635.84;;;36.08;47.22
51299;BME280;37382;45.192;9.790;2023-09-18T15:44:30;100644.19;;;36.01;46.43
51299;BME280;37382;45.192;9.790;2023-09-18T15:46:58;100648.75;;;34.80;47.38
51299;BME280;37382;45.192;9.790;2023-09-18T15:49:26;100656.25;;;35.59;46.08
51299;BME280;37382;45.192;9.790;2023-09-18T15:51:54;100651.81;;;35.77;44.60
51299;BME280;37382;45.192;9.790;2023-09-18T15:54:22;100640.81;;;35.56;44.97
51299;BME280;37382;45.192;9.790;2023-09-18T15:56:50;100641.03;;;34.96;44.41
51299;BME280;37382;45.192;9.790;2023-09-18T15:59:18;100646.91;;;33.83;46.56
51299;BME280;37382;45.192;9.790;2023-09-18T16:01:46;100647.47;;;31.31;50.50
51299;BME280;37382;45.192;9.790;2023-09-18T16:04:14;100649.66;;;31.26;51.99
51299;BME280;37382;45.192;9.790;2023-09-18T16:06:41;100649.50;;;30.36;53.88
51299;BME280;37382;45.192;9.790;2023-09-18T16:09:09;100649.28;;;29.85;55.73
51299;BME280;37382;45.192;9.790;2023-09-18T16:11:37;100662.06;;;29.25;58.05
51299;BME280;37382;45.192;9.790;2023-09-18T16:14:05;100669.34;;;28.86;59.83
51299;BME280;37382;45.192;9.790;2023-09-18T16:16:34;100680.75;;;28.67;60.98
51299;BME280;37382;45.192;9.790;2023-09-18T16:19:02;100692.69;;;28.27;63.54
51299;BME280;37382;45.192;9.790;2023-09-18T16:21:30;100692.13;;;28.16;64.89
51299;BME280;37382;45.192;9.790;2023-09-18T16:23:59;100695.00;;;28.25;66.06
51299;BME280;37382;45.192;9.790;2023-09-18T16:26:27;100690.03;;;27.99;68.33
51299;BME280;37382;45.192;9.790;2023-09-18T16:28:54;100692.50;;;28.01;68.77
51299;BME280;37382;45.192;9.790;2023-09-18T16:31:22;100688.28;;;27.90;71.45
51299;BME280;37382;45.192;9.790;2023-09-18T16:33:51;100704.25;;;27.75;70.67
51299;BME280;37382;45.192;9.790;2023-09-18T16:36:18;100698.66;;;27.75;72.02
51299;BME280;37382;45.192;9.790;2023-09-18T16:38:47;100684.16;;;27.87;72.14
51299;BME280;37382;45.192;9.790;2023-09-18T16:41:15;100681.59;;;27.77;71.85
51299;BME280;37382;45.192;9.790;2023-09-18T16:43:42;100685.25;;;27.63;74.02
51299;BME280;37382;45.192;9.790;2023-09-18T16:46:10;100680.69;;;27.67;73.17
51299;BME280;37382;45.192;9.790;2023-09-18T16:48:38;100689.25;;;27.71;73.66
51299;BME280;37382;45.192;9.790;2023-09-18T16:51:06;100688.78;;;27.55;75.19
51299;BME280;37382;45.192;9.790;2023-09-18T16:53:37;100702.69;;;27.32;76.41
51299;BME280;37382;45.192;9.790;2023-09-18T16:56:05;100697.84;;;27.10;78.86
51299;BME280;37382;45.192;9.790;2023-09-18T16:58:33;100708.88;;;26.88;81.81
51299;BME280;37382;45.192;9.790;2023-09-18T17:01:00;100705.25;;;26.87;84.54
51299;BME280;37382;45.192;9.790;2023-09-18T17:03:29;100706.28;;;26.91;84.86
51299;BME280;37382;45.192;9.790;2023-09-18T17:05:57;100702.69;;;26.91;82.37
51299;BME280;37382;45.192;9.790;2023-09-18T17:08:25;100704.53;;;26.82;84.76
51299;BME280;37382;45.192;9.790;2023-09-18T17:10:53;100705.06;;;26.64;87.12
51299;BME280;37382;45.192;9.790;2023-09-18T17:13:21;100708.06;;;26.54;89.66
51299;BME280;37382;45.192;9.790;2023-09-18T17:15:50;100718.19;;;26.50;90.75
51299;BME280;37382;45.192;9.790;2023-09-18T17:18:17;100727.16;;;26.47;89.06
51299;BME280;37382;45.192;9.790;2023-09-18T17:20:45;100724.06;;;26.49;89.56
51299;BME280;37382;45.192;9.790;2023-09-18T17:23:13;100733.97;;;26.41;91.37
51299;BME280;37382;45.192;9.790;2023-09-18T17:25:41;100739.63;;;26.36;91.30
51299;BME280;37382;45.192;9.790;2023-09-18T17:28:13;100730.06;;;26.23;91.80